sensor_id;sensor_type;location;lat;lon;timestamp;P1;durP1;ratioP1;P2;durP2;ratioP2
66603;SDS011;53460;39.612;8.822;2023-04-06T00:00:13;2.78;;;2.53;;
66603;SDS011;53460;39.612;8.822;2023-04-06T00:02:39;4.57;;;2.55;;
66603;SDS011;53460;39.612;8.822;2023-04-06T00:05:05;2.70;;;2.20;;
66603;SDS011;53460;39.612;8.822;2023-04-06T00:07:31;3.63;;;2.17;;
66603;SDS011;53460;39.612;8.822;2023-04-06T00:09:58;4.85;;;2.88;;
66603;SDS011;53460;39.612;8.822;2023-04-06T00:12:24;6.55;;;2.22;;
66603;SDS011;53460;39.612;8.822;2023-04-06T00:14:49;4.75;;;2.25;;
66603;SDS011;53460;39.612;8.822;2023-04-06T00:17:15;3.67;;;2.38;;
66603;SDS011;53460;39.612;8.822;2023-04-06T00:19:41;3.63;;;2.40;;
66603;SDS011;53460;39.612;8.822;2023-04-06T00:22:06;6.45;;;2.92;;
66603;SDS011;53460;39.612;8.822;2023-04-06T00:24:32;5.85;;;2.50;;
66603;SDS011;53460;39.612;8.822;2023-04-06T00:26:57;4.78;;;1.90;;
66603;SDS011;53460;39.612;8.822;2023-04-06T00:29:22;4.45;;;2.83;;
66603;SDS011;53460;39.612;8.822;2023-04-06T00:31:48;4.60;;;3.05;;
66603;SDS011;53460;39.612;8.822;2023-04-06T00:34:13;6.82;;;2.80;;
66603;SDS011;53460;39.612;8.822;2023-04-06T00:36:41;5.68;;;2.83;;
66603;SDS011;53460;39.612;8.822;2023-04-06T00:39:06;3.72;;;2.05;;
66603;SDS011;53460;39.612;8.822;2023-04-06T00:41:32;3.92;;;2.10;;
66603;SDS011;53460;39.612;8.822;2023-04-06T00:43:57;4.75;;;2.20;;
66603;SDS011;53460;39.612;8.822;2023-04-06T00:46:23;3.65;;;2.03;;
66603;SDS011;53460;39.612;8.822;2023-04-06T00:48:49;2.97;;;1.90;;
66603;SDS011;53460;39.612;8.822;2023-04-06T00:51:14;4.13;;;2.35;;
66603;SDS011;53460;39.612;8.822;2023-04-06T00:53:40;3.90;;;2.15;;
66603;SDS011;53460;39.612;8.822;2023-04-06T00:56:06;5.55;;;2.47;;
66603;SDS011;53460;39.612;8.822;2023-04-06T00:58:44;6.15;;;3.67;;
66603;SDS011;53460;39.612;8.822;2023-04-06T01:01:10;5.30;;;3.28;;
66603;SDS011;53460;39.612;8.822;2023-04-06T01:03:36;7.18;;;3.22;;
66603;SDS011;53460;39.612;8.822;2023-04-06T01:06:02;3.00;;;2.15;;
66603;SDS011;53460;39.612;8.822;2023-04-06T01:08:34;2.55;;;2.33;;
66603;SDS011;53460;39.612;8.822;2023-04-06T01:11:15;4.82;;;2.33;;
66603;SDS011;53460;39.612;8.822;2023-04-06T01:13:40;2.97;;;1.67;;
66603;SDS011;53460;39.612;8.822;2023-04-06T01:16:13;8.63;;;2.55;;
66603;SDS011;53460;39.612;8.822;2023-04-06T01:19:08;5.10;;;2.85;;
66603;SDS011;53460;39.612;8.822;2023-04-06T01:21:35;4.45;;;2.55;;
66603;SDS011;53460;39.612;8.822;2023-04-06T01:24:15;3.97;;;2.33;;
66603;SDS011;53460;39.612;8.822;2023-04-06T01:26:55;3.08;;;2.40;;
66603;SDS011;53460;39.612;8.822;2023-04-06T01:29:21;3.65;;;2.30;;
66603;SDS011;53460;39.612;8.822;2023-04-06T01:31:47;3.53;;;2.25;;
66603;SDS011;53460;39.612;8.822;2023-04-06T01:34:14;6.75;;;2.42;;
66603;SDS011;53460;39.612;8.822;2023-04-06T01:36:40;7.22;;;2.22;;
66603;SDS011;53460;39.612;8.822;2023-04-06T01:39:21;5.97;;;2.38;;
66603;SDS011;53460;39.612;8.822;2023-04-06T01:41:47;4.45;;;2.97;;
66603;SDS011;53460;39.612;8.822;2023-04-06T01:44:16;4.45;;;2.55;;
66603;SDS011;53460;39.612;8.822;2023-04-06T01:46:42;4.95;;;2.20;;
66603;SDS011;53460;39.612;8.822;2023-04-06T01:49:09;2.17;;;1.98;;
66603;SDS011;53460;39.612;8.822;2023-04-06T01:51:37;5.82;;;2.55;;
66603;SDS011;53460;39.612;8.822;2023-04-06T01:54:06;6.70;;;2.17;;
66603;SDS011;53460;39.612;8.822;2023-04-06T01:56:40;2.90;;;2.10;;
66603;SDS011;53460;39.612;8.822;2023-04-06T01:59:19;5.22;;;2.08;;
66603;SDS011;53460;39.612;8.822;2023-04-06T02:01:45;3.35;;;1.92;;
66603;SDS011;53460;39.612;8.822;2023-04-06T02:04:11;6.00;;;1.80;;
66603;SDS011;53460;39.612;8.822;2023-04-06T02:06:39;3.90;;;1.73;;
66603;SDS011;53460;39.612;8.822;2023-04-06T02:09:08;3.75;;;2.08;;
66603;SDS011;53460;39.612;8.822;2023-04-06T02:11:33;2.90;;;1.70;;
66603;SDS011;53460;39.612;8.822;2023-04-06T02:13:59;2.92;;;1.88;;
66603;SDS011;53460;39.612;8.822;2023-04-06T02:16:29;4.38;;;1.75;;
66603;SDS011;53460;39.612;8.822;2023-04-06T02:18:54;4.90;;;3.35;;
66603;SDS011;53460;39.612;8.822;2023-04-06T02:21:20;3.83;;;1.95;;
66603;SDS011;53460;39.612;8.822;2023-04-06T02:23:46;3.58;;;1.60;;
66603;SDS011;53460;39.612;8.822;2023-04-06T02:26:12;4.88;;;1.40;;
66603;SDS011;53460;39.612;8.822;2023-04-06T02:28:38;3.88;;;1.98;;
66603;SDS011;53460;39.612;8.822;2023-04-06T02:31:03;2.30;;;1.52;;
66603;SDS011;53460;39.612;8.822;2023-04-06T02:33:29;4.18;;;1.58;;
66603;SDS011;53460;39.612;8.822;2023-04-06T02:35:54;3.00;;;1.40;;
66603;SDS011;53460;39.612;8.822;2023-04-06T02:38:20;5.30;;;1.65;;
66603;SDS011;53460;39.612;8.822;2023-04-06T02:40:45;2.85;;;1.70;;
66603;SDS011;53460;39.612;8.822;2023-04-06T02:43:18;5.60;;;1.73;;
66603;SDS011;53460;39.612;8.822;2023-04-06T02:45:44;2.90;;;1.83;;
66603;SDS011;53460;39.612;8.822;2023-04-06T02:48:11;3.78;;;1.67;;
66603;SDS011;53460;39.612;8.822;2023-04-06T02:50:37;4.47;;;1.95;;
66603;SDS011;53460;39.612;8.822;2023-04-06T02:53:05;5.35;;;1.75;;
66603;SDS011;53460;39.612;8.822;2023-04-06T02:55:31;6.70;;;1.95;;
66603;SDS011;53460;39.612;8.822;2023-04-06T02:57:57;4.82;;;1.80;;
66603;SDS011;53460;39.612;8.822;2023-04-06T03:00:30;3.97;;;2.50;;
66603;SDS011;53460;39.612;8.822;2023-04-06T03:02:55;4.75;;;2.00;;
66603;SDS011;53460;39.612;8.822;2023-04-06T03:05:21;4.68;;;2.03;;
66603;SDS011;53460;39.612;8.822;2023-04-06T03:07:47;3.00;;;1.80;;
66603;SDS011;53460;39.612;8.822;2023-04-06T03:12:47;5.03;;;2.10;;
66603;SDS011;53460;39.612;8.822;2023-04-06T03:15:19;5.90;;;2.08;;
66603;SDS011;53460;39.612;8.822;2023-04-06T03:17:50;6.10;;;2.28;;
66603;SDS011;53460;39.612;8.822;2023-04-06T03:20:31;6.43;;;2.20;;
66603;SDS011;53460;39.612;8.822;2023-04-06T03:22:57;5.03;;;2.30;;
66603;SDS011;53460;39.612;8.822;2023-04-06T03:25:26;3.13;;;1.40;;
66603;SDS011;53460;39.612;8.822;2023-04-06T03:27:56;3.15;;;2.22;;
66603;SDS011;53460;39.612;8.822;2023-04-06T03:30:22;4.60;;;1.95;;
66603;SDS011;53460;39.612;8.822;2023-04-06T03:32:48;1.70;;;1.60;;
66603;SDS011;53460;39.612;8.822;2023-04-06T03:35:14;4.60;;;1.52;;
66603;SDS011;53460;39.612;8.822;2023-04-06T03:37:40;6.93;;;2.00;;
66603;SDS011;53460;39.612;8.822;2023-04-06T03:40:06;3.25;;;1.85;;
66603;SDS011;53460;39.612;8.822;2023-04-06T03:42:31;7.05;;;3.63;;
66603;SDS011;53460;39.612;8.822;2023-04-06T03:45:03;14.50;;;5.47;;
66603;SDS011;53460;39.612;8.822;2023-04-06T03:47:29;13.23;;;7.03;;
66603;SDS011;53460;39.612;8.822;2023-04-06T03:49:59;19.52;;;9.48;;
66603;SDS011;53460;39.612;8.822;2023-04-06T03:52:24;16.63;;;8.55;;
66603;SDS011;53460;39.612;8.822;2023-04-06T03:54:51;14.35;;;6.47;;
66603;SDS011;53460;39.612;8.822;2023-04-06T03:57:17;7.60;;;4.93;;
66603;SDS011;53460;39.612;8.822;2023-04-06T03:59:42;6.65;;;4.97;;
66603;SDS011;53460;39.612;8.822;2023-04-06T04:02:08;8.82;;;4.15;;
66603;SDS011;53460;39.612;8.822;2023-04-06T04:04:33;9.20;;;4.03;;
66603;SDS011;53460;39.612;8.822;2023-04-06T04:06:59;8.00;;;4.55;;
66603;SDS011;53460;39.612;8.822;2023-04-06T04:09:24;15.25;;;4.57;;
66603;SDS011;53460;39.612;8.822;2023-04-06T04:11:50;6.40;;;3.38;;
66603;SDS011;53460;39.612;8.822;2023-04-06T04:14:15;5.53;;;2.60;;
66603;SDS011;53460;39.612;8.822;2023-04-06T04:16:41;2.80;;;2.00;;
66603;SDS011;53460;39.612;8.822;2023-04-06T04:19:07;3.33;;;2.60;;
66603;SDS011;53460;39.612;8.822;2023-04-06T04:21:32;5.45;;;2.25;;
66603;SDS011;53460;39.612;8.822;2023-04-06T04:24:02;3.17;;;1.80;;
66603;SDS011;53460;39.612;8.822;2023-04-06T04:26:28;2.40;;;1.58;;
66603;SDS011;53460;39.612;8.822;2023-04-06T04:28:53;2.60;;;1.50;;
66603;SDS011;53460;39.612;8.822;2023-04-06T04:31:19;3.15;;;1.98;;
66603;SDS011;53460;39.612;8.822;2023-04-06T04:33:51;6.40;;;4.18;;
66603;SDS011;53460;39.612;8.822;2023-04-06T04:36:24;3.83;;;3.17;;
66603;SDS011;53460;39.612;8.822;2023-04-06T04:38:52;4.22;;;2.22;;
66603;SDS011;53460;39.612;8.822;2023-04-06T04:41:18;3.70;;;2.35;;
66603;SDS011;53460;39.612;8.822;2023-04-06T04:43:44;3.20;;;2.30;;
66603;SDS011;53460;39.612;8.822;2023-04-06T04:46:12;6.32;;;3.80;;
66603;SDS011;53460;39.612;8.822;2023-04-06T04:48:41;6.05;;;3.75;;
66603;SDS011;53460;39.612;8.822;2023-04-06T04:51:07;5.22;;;3.35;;
66603;SDS011;53460;39.612;8.822;2023-04-06T04:53:53;4.78;;;3.70;;
66603;SDS011;53460;39.612;8.822;2023-04-06T04:56:23;5.20;;;4.40;;
66603;SDS011;53460;39.612;8.822;2023-04-06T04:58:53;4.88;;;2.70;;
66603;SDS011;53460;39.612;8.822;2023-04-06T05:01:18;7.30;;;5.50;;
66603;SDS011;53460;39.612;8.822;2023-04-06T05:03:45;5.85;;;4.57;;
66603;SDS011;53460;39.612;8.822;2023-04-06T05:06:14;5.72;;;4.30;;
66603;SDS011;53460;39.612;8.822;2023-04-06T05:08:41;6.40;;;3.83;;
66603;SDS011;53460;39.612;8.822;2023-04-06T05:11:06;8.25;;;4.30;;
66603;SDS011;53460;39.612;8.822;2023-04-06T05:13:36;11.23;;;4.40;;
66603;SDS011;53460;39.612;8.822;2023-04-06T05:16:08;8.20;;;4.28;;
66603;SDS011;53460;39.612;8.822;2023-04-06T05:18:34;7.70;;;5.05;;
66603;SDS011;53460;39.612;8.822;2023-04-06T05:21:01;9.30;;;4.85;;
66603;SDS011;53460;39.612;8.822;2023-04-06T05:23:52;20.60;;;13.52;;
66603;SDS011;53460;39.612;8.822;2023-04-06T05:26:20;177.77;;;74.13;;
66603;SDS011;53460;39.612;8.822;2023-04-06T05:28:46;43.30;;;28.75;;
66603;SDS011;53460;39.612;8.822;2023-04-06T05:31:12;27.85;;;19.38;;
66603;SDS011;53460;39.612;8.822;2023-04-06T05:33:45;36.58;;;26.98;;
66603;SDS011;53460;39.612;8.822;2023-04-06T05:36:13;25.67;;;18.80;;
66603;SDS011;53460;39.612;8.822;2023-04-06T05:38:42;30.23;;;19.42;;
66603;SDS011;53460;39.612;8.822;2023-04-06T05:41:20;14.70;;;11.48;;
66603;SDS011;53460;39.612;8.822;2023-04-06T05:43:45;12.73;;;9.15;;
66603;SDS011;53460;39.612;8.822;2023-04-06T05:46:11;14.10;;;10.48;;
66603;SDS011;53460;39.612;8.822;2023-04-06T05:48:36;9.98;;;6.95;;
66603;SDS011;53460;39.612;8.822;2023-04-06T05:51:02;6.80;;;5.75;;
66603;SDS011;53460;39.612;8.822;2023-04-06T05:53:38;8.52;;;6.70;;
66603;SDS011;53460;39.612;8.822;2023-04-06T05:56:04;11.85;;;6.38;;
66603;SDS011;53460;39.612;8.822;2023-04-06T05:58:29;15.73;;;7.30;;
66603;SDS011;53460;39.612;8.822;2023-04-06T06:00:59;13.60;;;6.60;;
66603;SDS011;53460;39.612;8.822;2023-04-06T06:03:26;13.60;;;7.20;;
66603;SDS011;53460;39.612;8.822;2023-04-06T06:05:59;11.23;;;7.25;;
66603;SDS011;53460;39.612;8.822;2023-04-06T06:08:29;8.90;;;7.68;;
66603;SDS011;53460;39.612;8.822;2023-04-06T06:10:56;15.10;;;8.98;;
66603;SDS011;53460;39.612;8.822;2023-04-06T06:13:23;14.05;;;6.53;;
66603;SDS011;53460;39.612;8.822;2023-04-06T06:15:49;9.85;;;4.72;;
66603;SDS011;53460;39.612;8.822;2023-04-06T06:18:17;6.28;;;4.18;;
66603;SDS011;53460;39.612;8.822;2023-04-06T06:20:42;4.85;;;3.40;;
66603;SDS011;53460;39.612;8.822;2023-04-06T06:23:08;7.03;;;3.03;;
66603;SDS011;53460;39.612;8.822;2023-04-06T06:25:35;6.30;;;3.35;;
66603;SDS011;53460;39.612;8.822;2023-04-06T06:28:01;6.43;;;4.50;;
66603;SDS011;53460;39.612;8.822;2023-04-06T06:30:29;7.65;;;4.13;;
66603;SDS011;53460;39.612;8.822;2023-04-06T06:32:55;6.75;;;3.30;;
66603;SDS011;53460;39.612;8.822;2023-04-06T06:35:21;6.07;;;3.90;;
66603;SDS011;53460;39.612;8.822;2023-04-06T06:37:47;8.18;;;3.72;;
66603;SDS011;53460;39.612;8.822;2023-04-06T06:40:16;6.35;;;4.72;;
66603;SDS011;53460;39.612;8.822;2023-04-06T06:42:44;7.70;;;4.15;;
66603;SDS011;53460;39.612;8.822;2023-04-06T06:45:42;8.45;;;4.90;;
66603;SDS011;53460;39.612;8.822;2023-04-06T06:48:08;6.18;;;5.60;;
66603;SDS011;53460;39.612;8.822;2023-04-06T06:50:33;7.57;;;4.65;;
66603;SDS011;53460;39.612;8.822;2023-04-06T06:52:59;6.90;;;2.80;;
66603;SDS011;53460;39.612;8.822;2023-04-06T06:55:24;6.63;;;3.05;;
66603;SDS011;53460;39.612;8.822;2023-04-06T06:57:52;19.25;;;7.70;;
66603;SDS011;53460;39.612;8.822;2023-04-06T07:00:18;25.83;;;12.95;;
66603;SDS011;53460;39.612;8.822;2023-04-06T07:02:45;18.00;;;10.15;;
66603;SDS011;53460;39.612;8.822;2023-04-06T07:05:11;11.68;;;7.55;;
66603;SDS011;53460;39.612;8.822;2023-04-06T07:07:36;10.85;;;3.50;;
66603;SDS011;53460;39.612;8.822;2023-04-06T07:10:02;2.88;;;2.22;;
66603;SDS011;53460;39.612;8.822;2023-04-06T07:12:27;3.50;;;1.65;;
66603;SDS011;53460;39.612;8.822;2023-04-06T07:14:53;3.95;;;1.70;;
66603;SDS011;53460;39.612;8.822;2023-04-06T07:17:18;6.75;;;1.77;;
66603;SDS011;53460;39.612;8.822;2023-04-06T07:19:44;6.53;;;1.50;;
66603;SDS011;53460;39.612;8.822;2023-04-06T07:22:11;3.20;;;1.55;;
66603;SDS011;53460;39.612;8.822;2023-04-06T07:24:36;6.05;;;1.60;;
66603;SDS011;53460;39.612;8.822;2023-04-06T07:27:02;3.38;;;1.60;;
66603;SDS011;53460;39.612;8.822;2023-04-06T07:29:27;3.15;;;1.50;;
66603;SDS011;53460;39.612;8.822;2023-04-06T07:31:53;3.53;;;1.45;;
66603;SDS011;53460;39.612;8.822;2023-04-06T07:34:19;3.38;;;1.27;;
66603;SDS011;53460;39.612;8.822;2023-04-06T07:36:45;4.95;;;1.40;;
66603;SDS011;53460;39.612;8.822;2023-04-06T07:39:10;5.07;;;1.95;;
66603;SDS011;53460;39.612;8.822;2023-04-06T07:41:36;4.28;;;1.33;;
66603;SDS011;53460;39.612;8.822;2023-04-06T07:44:02;7.32;;;1.30;;
66603;SDS011;53460;39.612;8.822;2023-04-06T07:46:28;3.97;;;1.35;;
66603;SDS011;53460;39.612;8.822;2023-04-06T07:48:54;3.85;;;1.05;;
66603;SDS011;53460;39.612;8.822;2023-04-06T07:51:19;3.08;;;1.42;;
66603;SDS011;53460;39.612;8.822;2023-04-06T07:53:46;4.00;;;1.50;;
66603;SDS011;53460;39.612;8.822;2023-04-06T07:56:11;5.40;;;2.08;;
66603;SDS011;53460;39.612;8.822;2023-04-06T07:58:40;2.67;;;1.20;;
66603;SDS011;53460;39.612;8.822;2023-04-06T08:01:06;2.63;;;1.10;;
66603;SDS011;53460;39.612;8.822;2023-04-06T08:03:33;5.82;;;1.20;;
66603;SDS011;53460;39.612;8.822;2023-04-06T08:05:58;4.65;;;1.63;;
66603;SDS011;53460;39.612;8.822;2023-04-06T08:08:24;2.72;;;1.42;;
66603;SDS011;53460;39.612;8.822;2023-04-06T08:10:49;3.47;;;1.20;;
66603;SDS011;53460;39.612;8.822;2023-04-06T08:13:15;3.75;;;1.38;;
66603;SDS011;53460;39.612;8.822;2023-04-06T08:15:41;3.85;;;1.83;;
66603;SDS011;53460;39.612;8.822;2023-04-06T08:18:07;4.20;;;1.65;;
66603;SDS011;53460;39.612;8.822;2023-04-06T08:20:33;4.93;;;2.25;;
66603;SDS011;53460;39.612;8.822;2023-04-06T08:22:59;2.30;;;1.70;;
66603;SDS011;53460;39.612;8.822;2023-04-06T08:25:24;5.32;;;1.65;;
66603;SDS011;53460;39.612;8.822;2023-04-06T08:27:50;3.60;;;1.88;;
66603;SDS011;53460;39.612;8.822;2023-04-06T08:30:15;4.18;;;2.13;;
66603;SDS011;53460;39.612;8.822;2023-04-06T08:32:41;4.20;;;1.60;;
66603;SDS011;53460;39.612;8.822;2023-04-06T08:35:07;4.18;;;1.80;;
66603;SDS011;53460;39.612;8.822;2023-04-06T08:37:33;4.50;;;2.40;;
66603;SDS011;53460;39.612;8.822;2023-04-06T08:39:58;3.00;;;1.50;;
66603;SDS011;53460;39.612;8.822;2023-04-06T08:42:25;4.97;;;1.73;;
66603;SDS011;53460;39.612;8.822;2023-04-06T08:44:51;2.80;;;1.65;;
66603;SDS011;53460;39.612;8.822;2023-04-06T08:47:17;4.55;;;1.88;;
66603;SDS011;53460;39.612;8.822;2023-04-06T08:49:43;3.28;;;1.98;;
66603;SDS011;53460;39.612;8.822;2023-04-06T08:52:10;4.10;;;1.40;;
66603;SDS011;53460;39.612;8.822;2023-04-06T08:54:36;3.22;;;1.30;;
66603;SDS011;53460;39.612;8.822;2023-04-06T08:57:02;2.63;;;1.55;;
66603;SDS011;53460;39.612;8.822;2023-04-06T08:59:27;2.25;;;1.10;;
66603;SDS011;53460;39.612;8.822;2023-04-06T09:01:53;2.90;;;1.30;;
66603;SDS011;53460;39.612;8.822;2023-04-06T09:04:19;3.50;;;1.23;;
66603;SDS011;53460;39.612;8.822;2023-04-06T09:06:45;6.43;;;2.90;;
66603;SDS011;53460;39.612;8.822;2023-04-06T09:09:11;4.15;;;1.50;;
66603;SDS011;53460;39.612;8.822;2023-04-06T09:11:49;3.33;;;1.17;;
66603;SDS011;53460;39.612;8.822;2023-04-06T09:14:15;4.03;;;1.15;;
66603;SDS011;53460;39.612;8.822;2023-04-06T09:16:42;3.67;;;1.45;;
66603;SDS011;53460;39.612;8.822;2023-04-06T09:19:08;2.05;;;1.02;;
66603;SDS011;53460;39.612;8.822;2023-04-06T09:21:33;3.95;;;1.27;;
66603;SDS011;53460;39.612;8.822;2023-04-06T09:23:59;3.92;;;1.42;;
66603;SDS011;53460;39.612;8.822;2023-04-06T09:26:25;2.72;;;1.20;;
66603;SDS011;53460;39.612;8.822;2023-04-06T09:28:55;2.65;;;1.30;;
66603;SDS011;53460;39.612;8.822;2023-04-06T09:31:21;2.53;;;1.20;;
66603;SDS011;53460;39.612;8.822;2023-04-06T09:33:47;2.40;;;1.10;;
66603;SDS011;53460;39.612;8.822;2023-04-06T09:36:13;1.80;;;1.17;;
66603;SDS011;53460;39.612;8.822;2023-04-06T09:38:57;3.10;;;1.35;;
66603;SDS011;53460;39.612;8.822;2023-04-06T09:41:24;6.95;;;1.65;;
66603;SDS011;53460;39.612;8.822;2023-04-06T09:43:50;2.60;;;1.17;;
66603;SDS011;53460;39.612;8.822;2023-04-06T09:46:16;2.88;;;1.35;;
66603;SDS011;53460;39.612;8.822;2023-04-06T09:48:43;1.88;;;1.08;;
66603;SDS011;53460;39.612;8.822;2023-04-06T09:51:09;2.70;;;1.27;;
66603;SDS011;53460;39.612;8.822;2023-04-06T09:53:36;4.53;;;1.45;;
66603;SDS011;53460;39.612;8.822;2023-04-06T09:56:03;2.83;;;1.40;;
66603;SDS011;53460;39.612;8.822;2023-04-06T09:58:32;2.08;;;1.40;;
66603;SDS011;53460;39.612;8.822;2023-04-06T10:01:01;2.15;;;1.50;;
66603;SDS011;53460;39.612;8.822;2023-04-06T10:03:35;4.32;;;1.33;;
66603;SDS011;53460;39.612;8.822;2023-04-06T10:06:04;3.73;;;1.73;;
66603;SDS011;53460;39.612;8.822;2023-04-06T10:08:30;3.92;;;1.67;;
66603;SDS011;53460;39.612;8.822;2023-04-06T10:11:00;2.53;;;2.05;;
66603;SDS011;53460;39.612;8.822;2023-04-06T10:13:26;4.93;;;2.33;;
66603;SDS011;53460;39.612;8.822;2023-04-06T10:15:51;3.95;;;1.38;;
66603;SDS011;53460;39.612;8.822;2023-04-06T10:18:17;2.88;;;1.83;;
66603;SDS011;53460;39.612;8.822;2023-04-06T10:23:13;2.40;;;1.38;;
66603;SDS011;53460;39.612;8.822;2023-04-06T10:25:55;4.28;;;1.60;;
66603;SDS011;53460;39.612;8.822;2023-04-06T10:28:20;2.97;;;1.42;;
66603;SDS011;53460;39.612;8.822;2023-04-06T10:30:46;4.32;;;2.00;;
66603;SDS011;53460;39.612;8.822;2023-04-06T10:33:12;2.53;;;1.92;;
66603;SDS011;53460;39.612;8.822;2023-04-06T10:35:38;4.10;;;2.05;;
66603;SDS011;53460;39.612;8.822;2023-04-06T10:38:04;3.63;;;1.75;;
66603;SDS011;53460;39.612;8.822;2023-04-06T10:40:30;5.75;;;2.80;;
66603;SDS011;53460;39.612;8.822;2023-04-06T10:43:07;3.85;;;1.75;;
66603;SDS011;53460;39.612;8.822;2023-04-06T10:45:33;4.15;;;1.40;;
66603;SDS011;53460;39.612;8.822;2023-04-06T10:47:59;3.70;;;1.35;;
66603;SDS011;53460;39.612;8.822;2023-04-06T10:50:25;3.95;;;1.48;;
66603;SDS011;53460;39.612;8.822;2023-04-06T10:53:01;3.10;;;1.50;;
66603;SDS011;53460;39.612;8.822;2023-04-06T10:55:27;1.45;;;1.17;;
66603;SDS011;53460;39.612;8.822;2023-04-06T10:57:53;3.95;;;1.73;;
66603;SDS011;53460;39.612;8.822;2023-04-06T11:00:19;3.80;;;1.38;;
66603;SDS011;53460;39.612;8.822;2023-04-06T11:02:45;1.77;;;1.13;;
66603;SDS011;53460;39.612;8.822;2023-04-06T11:05:11;2.22;;;1.08;;
66603;SDS011;53460;39.612;8.822;2023-04-06T11:07:38;2.95;;;1.52;;
66603;SDS011;53460;39.612;8.822;2023-04-06T11:10:04;3.67;;;1.45;;
66603;SDS011;53460;39.612;8.822;2023-04-06T11:12:30;3.17;;;1.50;;
66603;SDS011;53460;39.612;8.822;2023-04-06T11:14:59;4.63;;;1.50;;
66603;SDS011;53460;39.612;8.822;2023-04-06T11:17:30;1.48;;;1.00;;
66603;SDS011;53460;39.612;8.822;2023-04-06T11:19:55;1.55;;;1.15;;
66603;SDS011;53460;39.612;8.822;2023-04-06T11:22:21;2.33;;;1.13;;
66603;SDS011;53460;39.612;8.822;2023-04-06T11:24:47;2.00;;;1.50;;
66603;SDS011;53460;39.612;8.822;2023-04-06T11:27:14;4.20;;;1.60;;
66603;SDS011;53460;39.612;8.822;2023-04-06T11:29:41;9.70;;;4.22;;
66603;SDS011;53460;39.612;8.822;2023-04-06T11:32:07;3.88;;;2.15;;
66603;SDS011;53460;39.612;8.822;2023-04-06T11:34:34;2.05;;;1.70;;
66603;SDS011;53460;39.612;8.822;2023-04-06T11:37:07;3.38;;;1.70;;
66603;SDS011;53460;39.612;8.822;2023-04-06T11:39:37;3.15;;;1.65;;
66603;SDS011;53460;39.612;8.822;2023-04-06T11:42:02;3.67;;;1.50;;
66603;SDS011;53460;39.612;8.822;2023-04-06T11:46:54;3.10;;;1.67;;
66603;SDS011;53460;39.612;8.822;2023-04-06T11:49:19;3.38;;;1.83;;
66603;SDS011;53460;39.612;8.822;2023-04-06T11:51:45;1.30;;;1.10;;
66603;SDS011;53460;39.612;8.822;2023-04-06T11:54:11;4.15;;;1.58;;
66603;SDS011;53460;39.612;8.822;2023-04-06T11:56:38;5.18;;;1.33;;
66603;SDS011;53460;39.612;8.822;2023-04-06T11:59:03;1.88;;;1.50;;
66603;SDS011;53460;39.612;8.822;2023-04-06T12:01:29;1.63;;;1.33;;
66603;SDS011;53460;39.612;8.822;2023-04-06T12:03:55;4.05;;;1.70;;
66603;SDS011;53460;39.612;8.822;2023-04-06T12:06:21;3.47;;;1.55;;
66603;SDS011;53460;39.612;8.822;2023-04-06T12:08:46;4.35;;;1.60;;
66603;SDS011;53460;39.612;8.822;2023-04-06T12:11:12;4.30;;;1.80;;
66603;SDS011;53460;39.612;8.822;2023-04-06T12:13:37;3.20;;;1.50;;
66603;SDS011;53460;39.612;8.822;2023-04-06T12:16:03;3.60;;;1.42;;
66603;SDS011;53460;39.612;8.822;2023-04-06T12:18:29;3.08;;;1.40;;
66603;SDS011;53460;39.612;8.822;2023-04-06T12:20:55;3.78;;;1.40;;
66603;SDS011;53460;39.612;8.822;2023-04-06T12:23:21;3.50;;;1.20;;
66603;SDS011;53460;39.612;8.822;2023-04-06T12:25:46;2.55;;;1.55;;
66603;SDS011;53460;39.612;8.822;2023-04-06T12:28:11;3.63;;;1.45;;
66603;SDS011;53460;39.612;8.822;2023-04-06T12:30:37;2.33;;;1.42;;
66603;SDS011;53460;39.612;8.822;2023-04-06T12:33:03;2.88;;;1.35;;
66603;SDS011;53460;39.612;8.822;2023-04-06T12:35:28;3.15;;;1.40;;
66603;SDS011;53460;39.612;8.822;2023-04-06T12:37:53;5.18;;;1.60;;
66603;SDS011;53460;39.612;8.822;2023-04-06T12:40:20;3.05;;;1.95;;
66603;SDS011;53460;39.612;8.822;2023-04-06T12:42:45;2.83;;;1.55;;
66603;SDS011;53460;39.612;8.822;2023-04-06T12:45:11;4.47;;;1.83;;
66603;SDS011;53460;39.612;8.822;2023-04-06T12:47:37;3.42;;;1.60;;
66603;SDS011;53460;39.612;8.822;2023-04-06T12:50:03;4.68;;;1.77;;
66603;SDS011;53460;39.612;8.822;2023-04-06T12:52:28;2.53;;;1.35;;
66603;SDS011;53460;39.612;8.822;2023-04-06T12:54:56;1.63;;;1.30;;
66603;SDS011;53460;39.612;8.822;2023-04-06T12:57:22;1.73;;;1.30;;
66603;SDS011;53460;39.612;8.822;2023-04-06T12:59:48;4.88;;;1.30;;
66603;SDS011;53460;39.612;8.822;2023-04-06T13:02:13;2.50;;;1.30;;
66603;SDS011;53460;39.612;8.822;2023-04-06T13:04:39;3.58;;;1.60;;
66603;SDS011;53460;39.612;8.822;2023-04-06T13:07:04;3.78;;;1.75;;
66603;SDS011;53460;39.612;8.822;2023-04-06T13:09:30;2.00;;;1.40;;
66603;SDS011;53460;39.612;8.822;2023-04-06T13:11:55;2.55;;;1.25;;
66603;SDS011;53460;39.612;8.822;2023-04-06T13:14:21;4.22;;;1.20;;
66603;SDS011;53460;39.612;8.822;2023-04-06T13:16:47;3.67;;;1.25;;
66603;SDS011;53460;39.612;8.822;2023-04-06T13:19:12;3.72;;;1.30;;
66603;SDS011;53460;39.612;8.822;2023-04-06T13:21:38;2.33;;;1.50;;
66603;SDS011;53460;39.612;8.822;2023-04-06T13:24:04;1.60;;;1.17;;
66603;SDS011;53460;39.612;8.822;2023-04-06T13:26:30;4.53;;;1.20;;
66603;SDS011;53460;39.612;8.822;2023-04-06T13:28:56;1.95;;;1.23;;
66603;SDS011;53460;39.612;8.822;2023-04-06T13:31:21;3.30;;;1.67;;
66603;SDS011;53460;39.612;8.822;2023-04-06T13:33:47;2.13;;;1.52;;
66603;SDS011;53460;39.612;8.822;2023-04-06T13:36:13;2.88;;;1.48;;
66603;SDS011;53460;39.612;8.822;2023-04-06T13:38:38;1.63;;;1.27;;
66603;SDS011;53460;39.612;8.822;2023-04-06T13:41:05;3.50;;;1.70;;
66603;SDS011;53460;39.612;8.822;2023-04-06T13:43:31;3.13;;;1.67;;
66603;SDS011;53460;39.612;8.822;2023-04-06T13:45:57;2.42;;;1.70;;
66603;SDS011;53460;39.612;8.822;2023-04-06T13:48:24;3.42;;;1.75;;
66603;SDS011;53460;39.612;8.822;2023-04-06T13:50:51;3.85;;;1.85;;
66603;SDS011;53460;39.612;8.822;2023-04-06T13:53:16;3.70;;;1.40;;
66603;SDS011;53460;39.612;8.822;2023-04-06T13:55:42;2.65;;;1.50;;
66603;SDS011;53460;39.612;8.822;2023-04-06T13:58:08;1.73;;;1.15;;
66603;SDS011;53460;39.612;8.822;2023-04-06T14:00:34;2.97;;;1.58;;
66603;SDS011;53460;39.612;8.822;2023-04-06T14:03:00;3.40;;;2.13;;
66603;SDS011;53460;39.612;8.822;2023-04-06T14:05:26;2.95;;;1.70;;
66603;SDS011;53460;39.612;8.822;2023-04-06T14:07:52;2.60;;;1.67;;
66603;SDS011;53460;39.612;8.822;2023-04-06T14:10:19;3.17;;;1.65;;
66603;SDS011;53460;39.612;8.822;2023-04-06T14:12:47;3.65;;;1.92;;
66603;SDS011;53460;39.612;8.822;2023-04-06T14:15:13;2.88;;;1.30;;
66603;SDS011;53460;39.612;8.822;2023-04-06T14:17:38;4.13;;;2.15;;
66603;SDS011;53460;39.612;8.822;2023-04-06T14:20:07;2.80;;;1.90;;
66603;SDS011;53460;39.612;8.822;2023-04-06T14:22:39;1.63;;;1.30;;
66603;SDS011;53460;39.612;8.822;2023-04-06T14:25:05;2.42;;;1.30;;
66603;SDS011;53460;39.612;8.822;2023-04-06T14:27:31;2.55;;;1.75;;
66603;SDS011;53460;39.612;8.822;2023-04-06T14:29:57;4.47;;;2.00;;
66603;SDS011;53460;39.612;8.822;2023-04-06T14:32:22;2.45;;;1.30;;
66603;SDS011;53460;39.612;8.822;2023-04-06T14:34:48;6.07;;;1.38;;
66603;SDS011;53460;39.612;8.822;2023-04-06T14:37:13;4.00;;;1.98;;
66603;SDS011;53460;39.612;8.822;2023-04-06T14:39:39;3.42;;;1.50;;
66603;SDS011;53460;39.612;8.822;2023-04-06T14:42:04;1.70;;;1.15;;
66603;SDS011;53460;39.612;8.822;2023-04-06T14:44:32;2.92;;;1.60;;
66603;SDS011;53460;39.612;8.822;2023-04-06T14:46:57;2.40;;;1.38;;
66603;SDS011;53460;39.612;8.822;2023-04-06T14:49:23;2.75;;;1.88;;
66603;SDS011;53460;39.612;8.822;2023-04-06T14:51:48;1.52;;;1.42;;